Time;durP1;ratioP1;P1;durP2;ratioP2;P2;SDS_P1;SDS_P2;PMS_P1;PMS_P2;Temp;Humidity;BMP_temperature;BMP_pressure;BME280_temperature;BME280_humidity;BME280_pressure;Samples;Min_cycle;Max_cycle;Signal;HPM_P1;HPM_P2
2023/09/13 00:03:23;;;;;;;8.90;8.20;;;24.40;34.80;;;;;;10394431;28;20285;-69
2023/09/13 00:08:27;;;;;;;8.90;8.00;;;24.40;35.00;;;;;;10395384;28;20404;-71
2023/09/13 00:13:31;;;;;;;8.37;7.67;;;24.20;35.40;;;;;;10397848;28;20221;-71
2023/09/13 00:18:35;;;;;;;8.27;7.57;;;24.00;35.30;;;;;;10393337;28;20275;-70
2023/09/13 00:23:39;;;;;;;9.10;8.20;;;23.90;35.60;;;;;;10398230;28;20232;-71
2023/09/13 00:28:44;;;;;;;8.00;7.33;;;23.70;36.30;;;;;;10400518;28;20264;-70
2023/09/13 00:33:47;;;;;;;8.03;7.33;;;23.50;35.90;;;;;;10398527;28;20232;-70
2023/09/13 00:38:52;;;;;;;8.33;7.53;;;23.50;36.30;;;;;;10405378;28;20220;-71
2023/09/13 00:43:56;;;;;;;8.37;7.77;;;23.50;36.80;;;;;;10407023;28;20228;-71
2023/09/13 00:48:59;;;;;;;8.27;7.47;;;23.60;36.30;;;;;;10403879;28;20229;-71
2023/09/13 00:54:04;;;;;;;8.33;7.73;;;23.50;36.40;;;;;;10404947;28;20308;-72
2023/09/13 00:59:08;;;;;;;7.93;7.33;;;23.50;36.90;;;;;;10402831;28;20230;-71
2023/09/13 01:04:11;;;;;;;8.20;7.57;;;23.50;37.20;;;;;;10401777;28;20310;-71
2023/09/13 01:09:16;;;;;;;8.07;7.27;;;23.50;36.50;;;;;;10405120;28;20359;-69
2023/09/13 01:14:21;;;;;;;8.13;7.47;;;23.50;36.90;;;;;;10399166;28;20226;-71
2023/09/13 01:19:44;;;;;;;8.40;7.70;;;23.40;36.40;;;;;;10400970;28;20233;-71
2023/09/13 01:25:05;;;;;;;7.00;6.43;;;23.30;37.30;;;;;;10406000;28;20229;-70
2023/09/13 01:30:10;;;;;;;7.00;6.50;;;23.30;37.40;;;;;;10407265;28;20256;-71
2023/09/13 01:35:13;;;;;;;7.73;7.13;;;23.30;37.10;;;;;;10403395;28;20221;-70
2023/09/13 01:40:17;;;;;;;7.83;7.23;;;23.40;36.80;;;;;;10404363;28;20226;-70
2023/09/13 01:45:23;;;;;;;8.13;7.50;;;23.40;36.70;;;;;;10402978;28;20244;-70
2023/09/13 01:50:26;;;;;;;7.53;6.93;;;23.40;37.20;;;;;;10402585;28;20327;-70
2023/09/13 01:55:29;;;;;;;8.37;7.67;;;23.20;36.60;;;;;;10407917;28;20222;-71
2023/09/13 02:00:34;;;;;;;8.43;7.60;;;23.10;36.80;;;;;;10404265;28;20723;-71
2023/09/13 02:05:37;;;;;;;8.40;7.80;;;23.00;37.40;;;;;;10404730;28;20324;-71
2023/09/13 02:10:40;;;;;;;8.60;7.60;;;23.00;37.30;;;;;;10397503;28;20225;-69
2023/09/13 02:15:45;;;;;;;8.33;7.70;;;23.10;37.40;;;;;;10406725;28;20228;-71
2023/09/13 02:20:48;;;;;;;8.70;7.90;;;23.10;37.60;;;;;;10403552;28;20237;-71
2023/09/13 02:25:52;;;;;;;8.80;8.10;;;23.10;37.20;;;;;;10402118;28;20228;-69
2023/09/13 02:30:56;;;;;;;8.33;7.53;;;23.00;37.20;;;;;;10405345;28;20236;-70
2023/09/13 02:36:00;;;;;;;7.43;6.83;;;22.90;37.60;;;;;;10407208;28;20236;-71
2023/09/13 02:41:03;;;;;;;8.30;7.60;;;22.80;37.30;;;;;;10403788;28;20228;-69
2023/09/13 02:46:08;;;;;;;8.57;7.87;;;22.70;37.40;;;;;;10407684;28;20229;-71
2023/09/13 02:51:14;;;;;;;8.33;7.73;;;22.50;37.90;;;;;;10407103;28;20230;-71
2023/09/13 02:56:17;;;;;;;9.17;8.27;;;22.30;38.50;;;;;;10407968;28;20273;-71
2023/09/13 03:01:23;;;;;;;8.50;7.80;;;22.20;38.40;;;;;;10407361;28;20233;-71
2023/09/13 03:06:26;;;;;;;8.60;7.90;;;22.00;38.50;;;;;;10400647;28;20253;-71
2023/09/13 03:11:29;;;;;;;8.63;7.83;;;21.90;38.20;;;;;;10405478;28;20230;-71
2023/09/13 03:16:34;;;;;;;8.43;7.77;;;21.80;38.40;;;;;;10409319;28;20257;-70
2023/09/13 03:21:37;;;;;;;7.73;7.00;;;21.90;39.30;;;;;;10409983;28;20229;-71
2023/09/13 03:26:41;;;;;;;7.10;6.40;;;21.80;38.70;;;;;;10407054;28;20692;-70
2023/09/13 03:31:45;;;;;;;7.23;6.60;;;21.80;38.80;;;;;;10405352;28;20236;-70
2023/09/13 03:36:49;;;;;;;8.07;7.37;;;21.80;39.50;;;;;;10402718;28;20231;-71
2023/09/13 03:41:52;;;;;;;8.13;7.40;;;21.80;39.30;;;;;;10403789;28;20229;-68
2023/09/13 03:46:57;;;;;;;8.30;7.50;;;21.80;39.40;;;;;;10396926;28;20312;-71
2023/09/13 03:52:01;;;;;;;7.50;6.93;;;21.80;39.90;;;;;;10409140;28;20992;-72
2023/09/13 03:57:05;;;;;;;7.93;7.13;;;21.70;39.40;;;;;;10400165;28;20975;-69
2023/09/13 04:02:10;;;;;;;7.47;6.87;;;21.70;39.60;;;;;;10404286;28;20229;-69
2023/09/13 04:07:13;;;;;;;7.47;6.87;;;21.60;40.30;;;;;;10404426;28;20225;-71
2023/09/13 04:12:16;;;;;;;7.53;6.87;;;21.60;40.00;;;;;;10408270;28;20788;-70
2023/09/13 04:17:21;;;;;;;7.17;6.57;;;21.60;40.00;;;;;;10420773;28;20348;-69
2023/09/13 04:22:25;;;;;;;9.03;7.10;;;21.50;40.60;;;;;;10411104;28;20316;-71
2023/09/13 04:27:28;;;;;;;7.63;7.03;;;21.50;40.20;;;;;;10410396;28;20331;-70
2023/09/13 04:32:33;;;;;;;8.17;6.57;;;21.50;40.50;;;;;;10415913;28;20232;-68
2023/09/13 04:37:36;;;;;;;7.40;6.77;;;21.50;41.10;;;;;;10405679;28;20303;-69
2023/09/13 04:42:43;;;;;;;8.27;6.80;;;21.50;40.80;;;;;;10410204;28;20367;-72
2023/09/13 04:47:47;;;;;;;7.30;6.63;;;21.40;41.30;;;;;;10409052;28;20241;-69
2023/09/13 04:52:51;;;;;;;7.10;6.50;;;21.50;41.30;;;;;;10409375;28;20247;-68
2023/09/13 04:57:54;;;;;;;7.43;6.83;;;21.50;40.80;;;;;;10408711;28;20344;-71
2023/09/13 05:03:00;;;;;;;7.40;6.73;;;21.60;40.80;;;;;;10405995;28;21006;-68
2023/09/13 05:08:04;;;;;;;7.50;6.60;;;21.70;41.10;;;;;;10413485;28;20685;-68
2023/09/13 05:13:08;;;;;;;7.60;7.00;;;21.80;40.80;;;;;;10411968;28;20232;-69
2023/09/13 05:18:13;;;;;;;6.90;6.40;;;21.80;40.60;;;;;;10405054;28;20235;-69
2023/09/13 05:23:19;;;;;;;7.87;7.03;;;21.80;41.00;;;;;;10412614;28;20724;-69
2023/09/13 05:28:24;;;;;;;9.70;7.07;;;21.90;40.60;;;;;;10416857;28;20536;-70
2023/09/13 05:33:29;;;;;;;7.87;7.07;;;21.90;40.70;;;;;;10417204;28;20232;-70
2023/09/13 05:38:32;;;;;;;7.27;5.70;;;21.90;41.30;;;;;;10410340;28;20237;-68
2023/09/13 05:43:35;;;;;;;6.50;5.30;;;21.90;40.70;;;;;;10417509;28;20233;-69
2023/09/13 05:48:40;;;;;;;6.70;5.23;;;21.90;40.80;;;;;;10405299;28;20873;-69
2023/09/13 05:53:43;;;;;;;5.60;5.10;;;22.00;41.30;;;;;;10414362;28;20232;-68
2023/09/13 05:58:47;;;;;;;5.50;5.10;;;22.00;41.00;;;;;;10407172;28;20228;-69
2023/09/13 06:03:51;;;;;;;5.43;5.03;;;22.10;40.90;;;;;;10406133;28;20228;-70
2023/09/13 06:08:55;;;;;;;5.40;5.00;;;22.20;41.10;;;;;;10403815;28;20221;-69
2023/09/13 06:13:58;;;;;;;5.30;4.90;;;22.30;40.80;;;;;;10403438;28;20226;-70
2023/09/13 06:19:03;;;;;;;5.83;5.33;;;22.40;40.90;;;;;;10407255;28;20224;-70
2023/09/13 06:24:07;;;;;;;5.70;5.30;;;22.50;41.10;;;;;;10406307;28;21073;-69
2023/09/13 06:29:10;;;;;;;6.43;5.57;;;22.50;40.90;;;;;;10409401;28;20232;-69
2023/09/13 06:34:15;;;;;;;5.23;4.73;;;22.60;40.80;;;;;;10405557;28;20233;-70
2023/09/13 06:39:27;;;;;;;5.33;4.70;;;22.70;41.10;;;;;;10410767;28;20225;-70
2023/09/13 06:44:30;;;;;;;5.97;5.47;;;22.80;41.00;;;;;;10406456;28;20705;-69
2023/09/13 06:49:50;;;;;;;5.50;5.07;;;23.00;41.00;;;;;;10406819;28;20239;-70
2023/09/13 06:54:54;;;;;;;6.33;5.73;;;23.10;41.30;;;;;;10409302;28;20225;-70
2023/09/13 07:00:00;;;;;;;5.47;5.00;;;23.20;41.00;;;;;;10406040;28;20936;-69
2023/09/13 07:05:08;;;;;;;5.93;4.83;;;23.30;41.00;;;;;;10406355;28;20213;-70
2023/09/13 07:10:14;;;;;;;5.77;5.17;;;23.50;41.30;;;;;;10408316;28;20932;-69
2023/09/13 07:15:18;;;;;;;5.47;5.07;;;23.50;40.40;;;;;;10406178;28;20233;-70
2023/09/13 07:20:23;;;;;;;5.63;5.13;;;23.70;40.40;;;;;;10411310;28;20244;-70
2023/09/13 07:25:26;;;;;;;5.30;4.80;;;23.70;40.00;;;;;;10403255;28;20608;-69
2023/09/13 07:30:29;;;;;;;5.43;4.93;;;23.80;40.10;;;;;;10406175;28;20237;-70
2023/09/13 07:35:34;;;;;;;5.17;4.77;;;23.80;40.10;;;;;;10408444;28;20227;-70
2023/09/13 07:40:38;;;;;;;5.67;5.17;;;23.90;40.30;;;;;;10405893;28;20247;-69
2023/09/13 07:45:42;;;;;;;5.00;4.60;;;23.90;40.00;;;;;;10414307;28;20228;-70
2023/09/13 07:50:46;;;;;;;5.00;4.57;;;23.90;39.90;;;;;;10409715;28;20603;-70
2023/09/13 07:55:50;;;;;;;4.20;3.90;;;24.00;40.00;;;;;;10410176;28;20229;-70
2023/09/13 08:00:53;;;;;;;6.47;3.90;;;24.00;40.00;;;;;;10406894;28;21237;-70
2023/09/13 08:05:59;;;;;;;3.73;3.43;;;24.10;40.10;;;;;;10408456;28;20572;-70
2023/09/13 08:11:03;;;;;;;3.37;3.17;;;24.10;40.10;;;;;;10397649;28;20222;-68
2023/09/13 08:16:07;;;;;;;3.23;3.03;;;24.10;40.10;;;;;;10404546;28;20221;-69
2023/09/13 08:21:11;;;;;;;4.80;2.97;;;24.20;40.20;;;;;;10405723;28;20233;-70
2023/09/13 08:26:16;;;;;;;3.33;3.13;;;24.30;39.70;;;;;;10399446;28;20875;-70
2023/09/13 08:31:29;;;;;;;3.40;3.20;;;24.30;39.80;;;;;;10402480;28;20379;-70
2023/09/13 08:36:34;;;;;;;3.13;2.90;;;24.40;39.50;;;;;;10404623;28;20229;-70
2023/09/13 08:41:37;;;;;;;3.60;3.30;;;24.50;39.20;;;;;;10404912;28;20229;-69
2023/09/13 08:46:41;;;;;;;3.80;3.50;;;24.50;39.00;;;;;;10400862;28;20253;-69
2023/09/13 08:51:47;;;;;;;3.57;3.27;;;24.50;39.10;;;;;;10397943;28;20808;-70
2023/09/13 08:56:50;;;;;;;3.47;3.27;;;24.50;39.20;;;;;;10408596;28;20745;-70
2023/09/13 09:01:55;;;;;;;3.57;3.20;;;24.50;39.20;;;;;;10404524;28;20593;-70
2023/09/13 09:07:00;;;;;;;3.57;3.37;;;24.50;39.00;;;;;;10411191;28;20233;-68
2023/09/13 09:12:06;;;;;;;4.83;3.53;;;24.50;38.90;;;;;;10403562;28;20222;-69
2023/09/13 09:17:10;;;;;;;3.30;3.10;;;24.60;39.10;;;;;;10402492;28;20716;-70
2023/09/13 09:22:17;;;;;;;4.00;3.70;;;24.60;39.40;;;;;;10405249;28;20779;-68
2023/09/13 09:27:21;;;;;;;4.97;3.40;;;24.60;39.80;;;;;;10405750;28;20240;-69
2023/09/13 09:32:24;;;;;;;3.70;3.40;;;24.60;39.60;;;;;;10403326;28;20229;-69
2023/09/13 09:37:32;;;;;;;4.07;3.77;;;24.60;39.70;;;;;;10408797;28;20728;-70
2023/09/13 09:42:37;;;;;;;4.07;3.77;;;24.60;39.60;;;;;;10409018;28;20229;-69
2023/09/13 09:47:43;;;;;;;4.97;3.80;;;24.70;39.70;;;;;;10405175;28;20233;-70
2023/09/13 09:52:51;;;;;;;4.90;4.23;;;24.90;39.90;;;;;;10403311;28;20260;-70
2023/09/13 09:57:55;;;;;;;4.57;4.17;;;25.00;39.10;;;;;;10405840;28;20232;-70
2023/09/13 10:02:58;;;;;;;4.60;4.30;;;25.10;39.00;;;;;;10403091;28;20355;-70
2023/09/13 10:08:03;;;;;;;5.03;4.63;;;25.20;39.10;;;;;;10407175;28;20700;-69
2023/09/13 10:13:06;;;;;;;5.53;4.63;;;25.20;38.90;;;;;;10409734;28;20315;-70
2023/09/13 10:18:13;;;;;;;5.80;5.40;;;25.30;38.90;;;;;;10404182;28;20312;-69
2023/09/13 10:23:21;;;;;;;5.00;4.60;;;25.40;38.80;;;;;;10406149;28;20272;-70
2023/09/13 10:28:25;;;;;;;5.00;4.60;;;25.50;38.70;;;;;;10405195;28;20230;-70
2023/09/13 10:33:32;;;;;;;4.93;4.40;;;25.70;38.70;;;;;;10402186;28;20327;-69
2023/09/13 10:38:45;;;;;;;5.37;4.97;;;25.70;38.60;;;;;;10412787;28;20226;-69
2023/09/13 10:43:49;;;;;;;4.80;4.40;;;25.90;38.60;;;;;;10404418;28;20697;-69
2023/09/13 10:48:54;;;;;;;5.00;4.60;;;26.10;39.00;;;;;;10410223;28;20230;-70
2023/09/13 10:54:01;;;;;;;5.20;4.70;;;26.30;38.10;;;;;;10409796;28;20754;-69
2023/09/13 10:59:06;;;;;;;4.60;4.20;;;26.40;37.20;;;;;;10404154;28;20232;-70
2023/09/13 11:04:10;;;;;;;4.13;3.73;;;26.40;37.10;;;;;;10405499;28;20573;-70
2023/09/13 11:09:15;;;;;;;3.87;3.57;;;26.30;37.20;;;;;;10400004;28;20237;-70
2023/09/13 11:14:24;;;;;;;4.90;3.57;;;26.20;37.00;;;;;;10406845;28;20244;-70
2023/09/13 11:19:28;;;;;;;3.57;3.27;;;26.10;36.70;;;;;;10398385;28;20312;-71
2023/09/13 11:24:41;;;;;;;3.63;3.33;;;26.10;37.00;;;;;;10394910;28;20725;-71
2023/09/13 11:29:50;;;;;;;3.67;3.37;;;26.00;36.80;;;;;;10404072;28;20229;-70
2023/09/13 11:34:56;;;;;;;3.80;3.50;;;26.10;36.80;;;;;;10396185;28;20316;-71
2023/09/13 11:40:10;;;;;;;3.70;3.40;;;26.10;37.10;;;;;;10393990;28;20936;-69
2023/09/13 11:45:16;;;;;;;3.50;3.20;;;26.10;36.60;;;;;;10392540;28;20224;-71
2023/09/13 11:50:48;;;;;;;3.13;2.93;;;26.20;36.50;;;;;;10401652;28;20312;-70
2023/09/13 11:55:56;;;;;;;3.33;3.13;;;26.20;36.10;;;;;;10403224;28;20281;-71
2023/09/13 12:01:15;;;;;;;3.30;3.00;;;26.20;35.90;;;;;;10399438;28;20233;-70
2023/09/13 12:06:20;;;;;;;3.40;3.10;;;26.30;35.90;;;;;;10396580;28;20239;-70
2023/09/13 12:11:38;;;;;;;3.00;2.80;;;26.30;36.20;;;;;;10397146;28;20232;-70
2023/09/13 12:16:44;;;;;;;3.40;3.20;;;26.30;36.00;;;;;;10395120;28;20230;-69
2023/09/13 12:21:48;;;;;;;3.20;3.00;;;26.40;35.90;;;;;;10395771;28;20316;-70
2023/09/13 12:26:54;;;;;;;3.00;2.80;;;26.40;35.80;;;;;;10393437;28;20232;-70
2023/09/13 12:31:58;;;;;;;3.23;2.60;;;26.40;35.90;;;;;;10419389;28;20225;-70
2023/09/13 12:37:02;;;;;;;3.33;2.87;;;26.50;35.90;;;;;;10416007;28;20235;-70
2023/09/13 12:42:10;;;;;;;2.80;2.60;;;26.60;35.90;;;;;;10416913;28;20666;-70
2023/09/13 12:47:16;;;;;;;2.60;2.40;;;26.60;34.90;;;;;;10415659;28;20220;-70
2023/09/13 12:52:20;;;;;;;2.50;2.40;;;26.70;35.20;;;;;;10419883;28;20229;-71
2023/09/13 12:57:29;;;;;;;20.10;4.23;;;26.70;34.80;;;;;;10416563;28;20233;-71
2023/09/13 13:02:33;;;;;;;5.80;2.77;;;26.70;35.00;;;;;;10412081;28;21146;-70
2023/09/13 13:07:40;;;;;;;3.10;2.50;;;26.70;35.30;;;;;;10421881;28;20233;-70
2023/09/13 13:13:05;;;;;;;3.10;2.40;;;26.70;34.20;;;;;;10423576;28;20219;-70
2023/09/13 13:18:11;;;;;;;3.40;2.63;;;26.80;34.60;;;;;;10413175;28;20337;-70
2023/09/13 13:23:14;;;;;;;2.27;2.17;;;26.80;34.40;;;;;;10418679;28;20257;-71
2023/09/13 13:28:19;;;;;;;3.60;2.40;;;26.90;34.40;;;;;;10413947;28;20226;-71
2023/09/13 13:33:22;;;;;;;2.73;2.30;;;26.90;33.70;;;;;;10417775;28;20403;-71
2023/09/13 13:38:25;;;;;;;2.57;2.40;;;26.80;34.10;;;;;;10414604;28;20264;-70
2023/09/13 13:43:30;;;;;;;2.50;2.30;;;26.80;34.50;;;;;;10416019;28;20248;-71
2023/09/13 13:48:34;;;;;;;2.50;2.30;;;26.80;33.70;;;;;;10418955;28;20225;-71
2023/09/13 13:53:39;;;;;;;2.60;2.40;;;26.80;34.40;;;;;;10415272;28;20233;-70
2023/09/13 13:58:43;;;;;;;2.20;2.00;;;26.80;34.20;;;;;;10415674;28;20593;-70
2023/09/13 14:03:46;;;;;;;2.20;2.10;;;26.70;33.70;;;;;;10411466;28;20233;-70
2023/09/13 14:08:50;;;;;;;2.40;2.20;;;26.70;34.00;;;;;;10419867;28;20248;-70
2023/09/13 14:13:55;;;;;;;2.50;2.40;;;26.70;33.80;;;;;;10414156;28;20225;-70
2023/09/13 14:18:58;;;;;;;2.50;2.30;;;26.70;33.70;;;;;;10411977;28;20258;-71
2023/09/13 14:24:04;;;;;;;2.40;2.20;;;26.70;33.80;;;;;;10419795;28;20232;-71
2023/09/13 14:29:11;;;;;;;2.07;1.90;;;26.60;33.70;;;;;;10413905;28;20224;-70
2023/09/13 14:34:14;;;;;;;2.37;2.00;;;26.60;33.90;;;;;;10410821;28;20317;-71
2023/09/13 14:39:17;;;;;;;1.90;1.80;;;26.60;34.40;;;;;;10408338;28;20230;-70
2023/09/13 14:44:22;;;;;;;1.90;1.80;;;26.60;33.40;;;;;;10407790;28;20275;-69
2023/09/13 14:49:26;;;;;;;2.10;2.00;;;26.60;33.40;;;;;;10409401;28;20225;-69
2023/09/13 14:54:29;;;;;;;2.00;1.83;;;26.60;33.70;;;;;;10411061;28;20237;-69
2023/09/13 14:59:34;;;;;;;2.10;1.90;;;26.70;33.70;;;;;;10411482;28;20238;-69
2023/09/13 15:04:37;;;;;;;1.80;1.70;;;26.60;33.20;;;;;;10407873;28;20237;-70
2023/09/13 15:09:41;;;;;;;1.83;1.70;;;26.60;33.40;;;;;;10416014;28;20222;-70
2023/09/13 15:14:45;;;;;;;1.90;1.80;;;26.60;33.20;;;;;;10407600;28;20230;-69
2023/09/13 15:19:49;;;;;;;2.10;2.00;;;26.50;33.00;;;;;;10419590;28;20225;-69
2023/09/13 15:24:53;;;;;;;1.70;1.60;;;26.50;33.00;;;;;;10412480;28;20861;-69
2023/09/13 15:29:58;;;;;;;3.13;1.87;;;26.40;33.10;;;;;;10414019;28;20231;-69
2023/09/13 15:35:02;;;;;;;2.70;1.90;;;26.30;33.00;;;;;;10415108;28;20687;-69
2023/09/13 15:40:09;;;;;;;1.90;1.80;;;26.30;33.50;;;;;;10411155;28;20222;-70
2023/09/13 15:45:14;;;;;;;2.20;2.00;;;26.30;33.70;;;;;;10407601;28;20279;-70
2023/09/13 15:50:17;;;;;;;2.10;2.00;;;26.30;33.40;;;;;;10409433;28;20230;-69
2023/09/13 15:55:21;;;;;;;1.77;1.67;;;26.30;33.40;;;;;;10409407;28;20239;-69
2023/09/13 16:00:25;;;;;;;1.90;1.80;;;26.30;33.50;;;;;;10408990;28;20935;-70
2023/09/13 16:05:29;;;;;;;2.00;1.90;;;26.40;33.60;;;;;;10413894;28;20229;-69
2023/09/13 16:10:32;;;;;;;3.00;1.73;;;26.40;33.30;;;;;;10416321;28;20243;-69
2023/09/13 16:15:36;;;;;;;2.00;1.90;;;26.40;33.40;;;;;;10417348;28;20927;-70
2023/09/13 16:20:40;;;;;;;2.20;2.00;;;26.20;33.50;;;;;;10416684;28;20816;-69
2023/09/13 16:25:43;;;;;;;1.83;1.73;;;26.20;33.80;;;;;;10415453;28;20364;-70
2023/09/13 16:30:48;;;;;;;1.93;1.83;;;26.20;33.80;;;;;;10427991;28;20240;-68
2023/09/13 16:35:51;;;;;;;3.37;2.00;;;26.20;33.50;;;;;;10416889;28;20624;-69
2023/09/13 16:40:54;;;;;;;2.20;2.00;;;26.30;33.90;;;;;;10425016;28;20226;-68
2023/09/13 16:45:59;;;;;;;2.07;1.97;;;26.40;33.30;;;;;;10420676;28;20218;-70
2023/09/13 16:51:02;;;;;;;1.90;1.80;;;26.40;33.10;;;;;;10418772;28;20316;-70
2023/09/13 16:56:06;;;;;;;2.00;1.90;;;26.30;33.20;;;;;;10419660;28;20237;-70
2023/09/13 17:01:10;;;;;;;1.83;1.73;;;26.30;33.20;;;;;;10418599;28;20225;-69
2023/09/13 17:06:14;;;;;;;2.00;1.90;;;26.20;33.30;;;;;;10425627;28;20217;-67
2023/09/13 17:11:18;;;;;;;1.83;1.73;;;26.30;33.50;;;;;;10416337;28;20261;-68
2023/09/13 17:16:23;;;;;;;2.10;2.00;;;26.30;33.40;;;;;;10420770;28;21596;-69
2023/09/13 17:21:26;;;;;;;2.17;2.00;;;26.30;33.10;;;;;;10418262;28;20270;-70
2023/09/13 17:26:29;;;;;;;1.80;1.70;;;26.30;33.10;;;;;;10415417;28;20318;-70
2023/09/13 17:31:34;;;;;;;2.57;2.00;;;26.20;33.00;;;;;;10422702;28;20267;-69
2023/09/13 17:36:38;;;;;;;2.63;2.00;;;26.20;33.10;;;;;;10417179;28;20230;-70
2023/09/13 17:41:44;;;;;;;2.80;1.93;;;26.10;33.20;;;;;;10418476;28;20233;-69
2023/09/13 17:46:49;;;;;;;2.40;2.20;;;26.10;33.10;;;;;;10422133;28;20234;-69
2023/09/13 17:51:52;;;;;;;2.20;2.00;;;26.10;33.10;;;;;;10414678;28;20228;-69
2023/09/13 17:56:55;;;;;;;2.10;1.87;;;26.00;33.40;;;;;;10407990;28;20766;-70
2023/09/13 18:02:00;;;;;;;2.23;2.10;;;26.00;33.50;;;;;;10407711;28;20236;-69
2023/09/13 18:07:05;;;;;;;2.33;2.13;;;25.90;33.60;;;;;;10414812;28;20246;-68
2023/09/13 18:12:08;;;;;;;2.40;2.30;;;25.90;33.70;;;;;;10411209;28;20312;-70
2023/09/13 18:17:12;;;;;;;2.33;2.23;;;25.70;33.70;;;;;;10414221;28;20232;-71
2023/09/13 18:22:15;;;;;;;2.73;2.10;;;25.70;34.10;;;;;;10414073;28;20304;-69
2023/09/13 18:27:18;;;;;;;3.27;2.20;;;25.60;34.10;;;;;;10411573;28;20230;-70
2023/09/13 18:32:23;;;;;;;2.40;2.20;;;25.50;34.20;;;;;;10408426;28;20284;-70
2023/09/13 18:37:26;;;;;;;3.33;2.50;;;25.50;34.60;;;;;;10409192;28;21491;-71
2023/09/13 18:42:31;;;;;;;3.00;2.73;;;25.40;34.50;;;;;;10411479;28;20702;-70
2023/09/13 18:47:36;;;;;;;2.70;2.50;;;25.40;34.60;;;;;;10410983;28;20647;-70
2023/09/13 18:52:40;;;;;;;2.50;2.30;;;25.20;34.80;;;;;;10413052;28;20260;-70
2023/09/13 18:57:43;;;;;;;2.70;2.50;;;25.10;34.80;;;;;;10408592;28;20233;-69
2023/09/13 19:02:48;;;;;;;3.10;2.60;;;24.90;35.00;;;;;;10408085;28;20232;-69
2023/09/13 19:07:52;;;;;;;3.20;3.00;;;24.80;35.50;;;;;;10410923;28;20232;-69
2023/09/13 19:12:55;;;;;;;2.57;2.47;;;24.70;35.50;;;;;;10408261;28;20298;-69
2023/09/13 19:18:00;;;;;;;3.10;2.80;;;24.60;35.60;;;;;;10399152;28;20236;-68
2023/09/13 19:23:04;;;;;;;2.80;2.60;;;24.50;36.00;;;;;;10402335;28;20728;-69
2023/09/13 19:28:07;;;;;;;3.23;3.00;;;24.50;35.90;;;;;;10411581;28;20231;-68
2023/09/13 19:33:12;;;;;;;3.10;2.90;;;24.50;36.10;;;;;;10404509;28;20313;-68
2023/09/13 19:38:15;;;;;;;3.20;3.00;;;24.50;36.60;;;;;;10401431;28;20236;-69
2023/09/13 19:43:34;;;;;;;3.43;2.90;;;24.50;36.50;;;;;;10402476;28;20233;-69
2023/09/13 19:48:40;;;;;;;3.00;2.80;;;24.50;36.70;;;;;;10401395;28;20233;-70
2023/09/13 19:53:45;;;;;;;3.00;2.80;;;24.40;36.90;;;;;;10404217;28;20702;-70
2023/09/13 19:58:49;;;;;;;2.87;2.67;;;24.40;36.60;;;;;;10407672;28;20237;-68
2023/09/13 20:03:55;;;;;;;3.20;3.00;;;24.30;36.80;;;;;;10403389;28;21087;-70
2023/09/13 20:08:58;;;;;;;2.80;2.60;;;24.30;37.50;;;;;;10406384;28;20240;-71
2023/09/13 20:14:01;;;;;;;3.40;3.20;;;24.30;37.00;;;;;;10403418;28;20225;-69
2023/09/13 20:19:06;;;;;;;3.17;2.97;;;24.30;37.20;;;;;;10403922;28;20226;-70
2023/09/13 20:24:09;;;;;;;3.20;3.00;;;24.30;37.50;;;;;;10398376;28;20713;-70
2023/09/13 20:29:13;;;;;;;3.33;3.03;;;24.30;37.50;;;;;;10397270;28;20221;-69
2023/09/13 20:34:18;;;;;;;3.33;3.13;;;24.30;37.60;;;;;;10406576;28;20217;-70
2023/09/13 20:39:21;;;;;;;3.37;3.13;;;24.30;37.90;;;;;;10405048;28;20282;-69
2023/09/13 20:44:25;;;;;;;3.80;3.27;;;24.30;37.50;;;;;;10399176;28;20230;-68
2023/09/13 20:49:29;;;;;;;3.47;3.27;;;24.40;37.40;;;;;;10405109;28;20234;-70
2023/09/13 20:54:33;;;;;;;3.60;3.30;;;24.30;37.50;;;;;;10408480;28;20233;-70
2023/09/13 20:59:36;;;;;;;3.27;3.07;;;24.30;37.20;;;;;;10407170;28;20793;-69
2023/09/13 21:04:41;;;;;;;3.67;3.40;;;24.20;37.00;;;;;;10406801;28;20253;-69
2023/09/13 21:09:45;;;;;;;3.53;3.23;;;24.10;37.40;;;;;;10407970;28;20233;-71
2023/09/13 21:14:50;;;;;;;3.50;3.30;;;24.10;37.30;;;;;;10412142;28;20222;-68
2023/09/13 21:19:55;;;;;;;3.90;3.60;;;23.90;37.30;;;;;;10410375;28;20233;-70
2023/09/13 21:25:00;;;;;;;4.10;3.73;;;23.80;38.00;;;;;;10413879;28;20228;-70
2023/09/13 21:30:04;;;;;;;4.47;4.10;;;23.80;37.70;;;;;;10409652;28;20228;-70
2023/09/13 21:35:11;;;;;;;3.90;3.60;;;23.60;38.00;;;;;;10407614;28;20225;-68
2023/09/13 21:40:15;;;;;;;3.67;3.33;;;23.50;38.60;;;;;;10408985;28;20656;-69
2023/09/13 21:45:18;;;;;;;4.23;3.93;;;23.40;38.60;;;;;;10409259;28;20222;-70
2023/09/13 21:50:24;;;;;;;4.13;3.83;;;23.40;38.80;;;;;;10408338;28;20610;-69
2023/09/13 21:55:27;;;;;;;4.70;4.33;;;23.30;39.40;;;;;;10408832;28;20235;-70
2023/09/13 22:00:32;;;;;;;4.73;4.33;;;23.30;39.40;;;;;;10401115;28;20614;-70
2023/09/13 22:05:37;;;;;;;4.30;3.90;;;23.20;39.30;;;;;;10405648;28;20241;-68
2023/09/13 22:10:42;;;;;;;5.03;4.63;;;23.10;39.70;;;;;;10404527;28;20232;-69
2023/09/13 22:15:46;;;;;;;4.13;3.83;;;23.10;39.70;;;;;;10402381;28;20232;-69
2023/09/13 22:20:51;;;;;;;4.53;4.13;;;23.00;39.60;;;;;;10408455;28;20229;-69
2023/09/13 22:25:55;;;;;;;5.33;4.83;;;23.10;40.50;;;;;;10406278;28;20232;-69
2023/09/13 22:31:00;;;;;;;4.80;4.40;;;23.10;40.10;;;;;;10410239;28;20232;-69
2023/09/13 22:36:10;;;;;;;5.30;4.90;;;23.10;40.20;;;;;;10413757;28;20820;-70
2023/09/13 22:41:13;;;;;;;5.70;5.30;;;23.00;41.20;;;;;;10408183;28;20621;-68
2023/09/13 22:46:17;;;;;;;5.37;4.97;;;22.90;40.20;;;;;;10401522;28;20225;-70
2023/09/13 22:51:22;;;;;;;5.33;4.93;;;22.80;40.50;;;;;;10409330;28;20247;-70
2023/09/13 22:56:26;;;;;;;4.17;3.87;;;22.70;41.30;;;;;;10414363;28;20233;-68
2023/09/13 23:01:29;;;;;;;5.43;4.93;;;22.70;40.70;;;;;;10412894;28;20238;-69
2023/09/13 23:06:34;;;;;;;5.37;4.93;;;22.70;41.10;;;;;;10403699;28;20232;-69
2023/09/13 23:11:37;;;;;;;4.07;3.77;;;22.80;41.80;;;;;;10406391;28;20775;-68
2023/09/13 23:16:41;;;;;;;4.40;4.10;;;22.80;40.80;;;;;;10401941;28;20764;-69
2023/09/13 23:21:46;;;;;;;4.83;4.50;;;22.80;41.10;;;;;;10404211;28;20315;-70
2023/09/13 23:26:50;;;;;;;4.63;4.33;;;22.80;41.60;;;;;;10400111;28;20217;-69
2023/09/13 23:31:54;;;;;;;4.80;4.50;;;22.80;40.90;;;;;;10400339;28;20244;-70
2023/09/13 23:37:00;;;;;;;4.63;4.23;;;22.80;40.90;;;;;;10410448;28;20225;-70
2023/09/13 23:42:04;;;;;;;5.50;5.10;;;22.70;41.30;;;;;;10412314;28;20227;-70
2023/09/13 23:47:07;;;;;;;5.83;5.33;;;22.60;41.20;;;;;;10405876;28;20904;-69
2023/09/13 23:52:12;;;;;;;5.50;5.00;;;22.50;41.50;;;;;;10409605;28;20224;-68
2023/09/13 23:57:15;;;;;;;4.63;4.33;;;22.30;42.10;;;;;;10404256;28;20230;-69
